sensor_id;sensor_type;location;lat;lon;timestamp;P1;durP1;ratioP1;P2;durP2;ratioP2
52248;SDS011;38541;48.130;8.378;2024-01-27T00:00:41;2.92;;;2.72;;
52248;SDS011;38541;48.130;8.378;2024-01-27T00:03:08;3.28;;;2.75;;
52248;SDS011;38541;48.130;8.378;2024-01-27T00:05:34;3.35;;;2.70;;
52248;SDS011;38541;48.130;8.378;2024-01-27T00:08:01;4.57;;;3.28;;
52248;SDS011;38541;48.130;8.378;2024-01-27T00:10:27;3.50;;;3.20;;
52248;SDS011;38541;48.130;8.378;2024-01-27T00:12:53;3.60;;;3.15;;
52248;SDS011;38541;48.130;8.378;2024-01-27T00:15:20;4.32;;;3.42;;
52248;SDS011;38541;48.130;8.378;2024-01-27T00:17:47;3.58;;;3.28;;
52248;SDS011;38541;48.130;8.378;2024-01-27T00:20:14;3.60;;;2.70;;
52248;SDS011;38541;48.130;8.378;2024-01-27T00:22:41;4.20;;;3.50;;
52248;SDS011;38541;48.130;8.378;2024-01-27T00:25:08;3.78;;;2.72;;
52248;SDS011;38541;48.130;8.378;2024-01-27T00:27:34;3.67;;;3.15;;
52248;SDS011;38541;48.130;8.378;2024-01-27T00:30:01;5.03;;;3.13;;
52248;SDS011;38541;48.130;8.378;2024-01-27T00:32:27;3.53;;;3.22;;
52248;SDS011;38541;48.130;8.378;2024-01-27T00:34:54;3.17;;;2.83;;
52248;SDS011;38541;48.130;8.378;2024-01-27T00:37:20;3.03;;;2.80;;
52248;SDS011;38541;48.130;8.378;2024-01-27T00:39:47;4.05;;;2.78;;
52248;SDS011;38541;48.130;8.378;2024-01-27T00:42:13;3.22;;;2.92;;
52248;SDS011;38541;48.130;8.378;2024-01-27T00:44:40;7.70;;;3.10;;
52248;SDS011;38541;48.130;8.378;2024-01-27T00:47:06;3.55;;;2.80;;
52248;SDS011;38541;48.130;8.378;2024-01-27T00:49:33;3.67;;;2.95;;
52248;SDS011;38541;48.130;8.378;2024-01-27T00:52:00;4.03;;;2.85;;
52248;SDS011;38541;48.130;8.378;2024-01-27T00:54:26;2.40;;;2.20;;
52248;SDS011;38541;48.130;8.378;2024-01-27T00:56:53;3.08;;;2.78;;
52248;SDS011;38541;48.130;8.378;2024-01-27T00:59:20;3.40;;;3.10;;
52248;SDS011;38541;48.130;8.378;2024-01-27T01:01:46;2.97;;;2.67;;
52248;SDS011;38541;48.130;8.378;2024-01-27T01:04:13;4.00;;;3.00;;
52248;SDS011;38541;48.130;8.378;2024-01-27T01:06:40;3.05;;;2.80;;
52248;SDS011;38541;48.130;8.378;2024-01-27T01:09:06;2.65;;;2.45;;
52248;SDS011;38541;48.130;8.378;2024-01-27T01:11:33;4.40;;;3.30;;
52248;SDS011;38541;48.130;8.378;2024-01-27T01:14:03;2.83;;;2.50;;
52248;SDS011;38541;48.130;8.378;2024-01-27T01:16:30;2.83;;;2.13;;
52248;SDS011;38541;48.130;8.378;2024-01-27T01:18:56;3.00;;;2.40;;
52248;SDS011;38541;48.130;8.378;2024-01-27T01:21:23;4.68;;;2.78;;
52248;SDS011;38541;48.130;8.378;2024-01-27T01:23:49;2.67;;;2.47;;
52248;SDS011;38541;48.130;8.378;2024-01-27T01:26:16;2.85;;;2.65;;
52248;SDS011;38541;48.130;8.378;2024-01-27T01:28:42;10.20;;;3.20;;
52248;SDS011;38541;48.130;8.378;2024-01-27T01:31:09;2.65;;;2.45;;
52248;SDS011;38541;48.130;8.378;2024-01-27T01:33:36;3.35;;;3.10;;
52248;SDS011;38541;48.130;8.378;2024-01-27T01:36:03;3.55;;;3.25;;
52248;SDS011;38541;48.130;8.378;2024-01-27T01:38:29;3.42;;;2.90;;
52248;SDS011;38541;48.130;8.378;2024-01-27T01:40:56;3.40;;;3.10;;
52248;SDS011;38541;48.130;8.378;2024-01-27T01:43:22;2.90;;;2.70;;
52248;SDS011;38541;48.130;8.378;2024-01-27T01:45:49;5.72;;;3.40;;
52248;SDS011;38541;48.130;8.378;2024-01-27T01:48:16;6.85;;;3.45;;
52248;SDS011;38541;48.130;8.378;2024-01-27T01:50:43;4.47;;;3.65;;
52248;SDS011;38541;48.130;8.378;2024-01-27T01:53:10;5.82;;;3.80;;
52248;SDS011;38541;48.130;8.378;2024-01-27T01:55:38;3.85;;;3.47;;
52248;SDS011;38541;48.130;8.378;2024-01-27T01:58:05;12.52;;;5.35;;
52248;SDS011;38541;48.130;8.378;2024-01-27T02:00:32;6.53;;;4.38;;
52248;SDS011;38541;48.130;8.378;2024-01-27T02:02:59;7.97;;;3.95;;
52248;SDS011;38541;48.130;8.378;2024-01-27T02:05:26;5.13;;;3.58;;
52248;SDS011;38541;48.130;8.378;2024-01-27T02:07:52;6.30;;;4.00;;
52248;SDS011;38541;48.130;8.378;2024-01-27T02:10:22;5.60;;;3.40;;
52248;SDS011;38541;48.130;8.378;2024-01-27T02:12:48;8.85;;;3.60;;
52248;SDS011;38541;48.130;8.378;2024-01-27T02:15:15;23.10;;;4.90;;
52248;SDS011;38541;48.130;8.378;2024-01-27T02:17:42;5.47;;;4.18;;
52248;SDS011;38541;48.130;8.378;2024-01-27T02:20:09;4.55;;;3.83;;
52248;SDS011;38541;48.130;8.378;2024-01-27T02:22:36;4.55;;;4.07;;
52248;SDS011;38541;48.130;8.378;2024-01-27T02:25:02;5.10;;;3.60;;
52248;SDS011;38541;48.130;8.378;2024-01-27T02:27:29;5.72;;;3.72;;
52248;SDS011;38541;48.130;8.378;2024-01-27T02:29:56;4.85;;;3.50;;
52248;SDS011;38541;48.130;8.378;2024-01-27T02:32:23;4.80;;;4.03;;
52248;SDS011;38541;48.130;8.378;2024-01-27T02:34:49;4.70;;;3.80;;
52248;SDS011;38541;48.130;8.378;2024-01-27T02:37:16;5.50;;;3.78;;
52248;SDS011;38541;48.130;8.378;2024-01-27T02:39:43;6.60;;;3.90;;
52248;SDS011;38541;48.130;8.378;2024-01-27T02:42:10;4.78;;;3.70;;
52248;SDS011;38541;48.130;8.378;2024-01-27T02:44:36;4.03;;;3.63;;
52248;SDS011;38541;48.130;8.378;2024-01-27T02:47:03;4.60;;;3.72;;
52248;SDS011;38541;48.130;8.378;2024-01-27T02:49:29;5.03;;;3.65;;
52248;SDS011;38541;48.130;8.378;2024-01-27T02:51:56;3.53;;;3.20;;
52248;SDS011;38541;48.130;8.378;2024-01-27T02:54:22;3.47;;;3.22;;
52248;SDS011;38541;48.130;8.378;2024-01-27T02:56:49;3.95;;;3.50;;
52248;SDS011;38541;48.130;8.378;2024-01-27T02:59:16;4.35;;;3.30;;
52248;SDS011;38541;48.130;8.378;2024-01-27T03:01:42;4.15;;;3.03;;
52248;SDS011;38541;48.130;8.378;2024-01-27T03:04:08;7.47;;;3.90;;
52248;SDS011;38541;48.130;8.378;2024-01-27T03:06:35;5.00;;;3.92;;
52248;SDS011;38541;48.130;8.378;2024-01-27T03:09:02;4.32;;;3.90;;
52248;SDS011;38541;48.130;8.378;2024-01-27T03:11:28;4.53;;;3.88;;
52248;SDS011;38541;48.130;8.378;2024-01-27T03:13:54;5.75;;;3.80;;
52248;SDS011;38541;48.130;8.378;2024-01-27T03:16:21;5.72;;;4.03;;
52248;SDS011;38541;48.130;8.378;2024-01-27T03:18:47;5.95;;;4.18;;
52248;SDS011;38541;48.130;8.378;2024-01-27T03:21:14;6.78;;;4.20;;
52248;SDS011;38541;48.130;8.378;2024-01-27T03:23:41;4.68;;;3.85;;
52248;SDS011;38541;48.130;8.378;2024-01-27T03:26:07;5.32;;;3.03;;
52248;SDS011;38541;48.130;8.378;2024-01-27T03:28:34;8.68;;;3.97;;
52248;SDS011;38541;48.130;8.378;2024-01-27T03:31:00;4.00;;;3.50;;
52248;SDS011;38541;48.130;8.378;2024-01-27T03:33:27;5.22;;;3.38;;
52248;SDS011;38541;48.130;8.378;2024-01-27T03:35:56;5.43;;;4.15;;
52248;SDS011;38541;48.130;8.378;2024-01-27T03:38:22;6.90;;;4.75;;
52248;SDS011;38541;48.130;8.378;2024-01-27T03:40:49;6.70;;;3.85;;
52248;SDS011;38541;48.130;8.378;2024-01-27T03:43:16;4.82;;;3.42;;
52248;SDS011;38541;48.130;8.378;2024-01-27T03:45:42;5.13;;;3.50;;
52248;SDS011;38541;48.130;8.378;2024-01-27T03:48:09;4.60;;;3.22;;
52248;SDS011;38541;48.130;8.378;2024-01-27T03:50:36;4.07;;;3.08;;
52248;SDS011;38541;48.130;8.378;2024-01-27T03:53:02;5.72;;;3.40;;
52248;SDS011;38541;48.130;8.378;2024-01-27T03:55:29;4.72;;;3.78;;
52248;SDS011;38541;48.130;8.378;2024-01-27T03:57:55;9.00;;;4.55;;
52248;SDS011;38541;48.130;8.378;2024-01-27T04:00:22;4.88;;;3.65;;
52248;SDS011;38541;48.130;8.378;2024-01-27T04:02:49;5.38;;;3.53;;
52248;SDS011;38541;48.130;8.378;2024-01-27T04:05:15;4.95;;;3.83;;
52248;SDS011;38541;48.130;8.378;2024-01-27T04:07:42;3.72;;;3.15;;
52248;SDS011;38541;48.130;8.378;2024-01-27T04:10:08;4.50;;;3.45;;
52248;SDS011;38541;48.130;8.378;2024-01-27T04:12:35;7.55;;;4.20;;
52248;SDS011;38541;48.130;8.378;2024-01-27T04:15:02;6.90;;;3.53;;
52248;SDS011;38541;48.130;8.378;2024-01-27T04:17:28;3.97;;;3.40;;
52248;SDS011;38541;48.130;8.378;2024-01-27T04:19:55;3.53;;;3.22;;
52248;SDS011;38541;48.130;8.378;2024-01-27T04:22:21;4.35;;;3.83;;
52248;SDS011;38541;48.130;8.378;2024-01-27T04:24:48;5.25;;;3.22;;
52248;SDS011;38541;48.130;8.378;2024-01-27T04:27:15;4.93;;;3.85;;
52248;SDS011;38541;48.130;8.378;2024-01-27T04:29:41;6.05;;;3.97;;
52248;SDS011;38541;48.130;8.378;2024-01-27T04:32:08;4.10;;;3.25;;
52248;SDS011;38541;48.130;8.378;2024-01-27T04:34:34;3.63;;;3.30;;
52248;SDS011;38541;48.130;8.378;2024-01-27T04:37:01;4.35;;;3.25;;
52248;SDS011;38541;48.130;8.378;2024-01-27T04:39:27;5.38;;;3.38;;
52248;SDS011;38541;48.130;8.378;2024-01-27T04:41:54;3.75;;;3.13;;
52248;SDS011;38541;48.130;8.378;2024-01-27T04:44:21;4.70;;;3.45;;
52248;SDS011;38541;48.130;8.378;2024-01-27T04:46:47;3.53;;;3.22;;
52248;SDS011;38541;48.130;8.378;2024-01-27T04:49:14;5.88;;;3.65;;
52248;SDS011;38541;48.130;8.378;2024-01-27T04:51:41;4.75;;;3.60;;
52248;SDS011;38541;48.130;8.378;2024-01-27T04:54:08;5.25;;;3.83;;
52248;SDS011;38541;48.130;8.378;2024-01-27T04:56:36;6.60;;;4.25;;
52248;SDS011;38541;48.130;8.378;2024-01-27T04:59:03;5.30;;;3.97;;
52248;SDS011;38541;48.130;8.378;2024-01-27T05:01:29;4.95;;;3.72;;
52248;SDS011;38541;48.130;8.378;2024-01-27T05:03:56;4.70;;;3.35;;
52248;SDS011;38541;48.130;8.378;2024-01-27T05:06:22;5.30;;;3.70;;
52248;SDS011;38541;48.130;8.378;2024-01-27T05:08:49;4.03;;;3.35;;
52248;SDS011;38541;48.130;8.378;2024-01-27T05:11:24;5.65;;;4.00;;
52248;SDS011;38541;48.130;8.378;2024-01-27T05:13:51;6.13;;;3.50;;
52248;SDS011;38541;48.130;8.378;2024-01-27T05:16:18;4.35;;;3.20;;
52248;SDS011;38541;48.130;8.378;2024-01-27T05:18:44;3.70;;;3.28;;
52248;SDS011;38541;48.130;8.378;2024-01-27T05:21:11;5.80;;;4.10;;
52248;SDS011;38541;48.130;8.378;2024-01-27T05:23:38;5.63;;;3.78;;
52248;SDS011;38541;48.130;8.378;2024-01-27T05:26:05;5.63;;;3.90;;
52248;SDS011;38541;48.130;8.378;2024-01-27T05:28:32;6.00;;;3.47;;
52248;SDS011;38541;48.130;8.378;2024-01-27T05:30:59;5.25;;;3.85;;
52248;SDS011;38541;48.130;8.378;2024-01-27T05:33:26;5.68;;;3.78;;
52248;SDS011;38541;48.130;8.378;2024-01-27T05:35:52;5.47;;;3.40;;
52248;SDS011;38541;48.130;8.378;2024-01-27T05:38:19;6.05;;;3.20;;
52248;SDS011;38541;48.130;8.378;2024-01-27T05:40:45;5.53;;;3.30;;
52248;SDS011;38541;48.130;8.378;2024-01-27T05:43:12;4.18;;;3.08;;
52248;SDS011;38541;48.130;8.378;2024-01-27T05:45:38;5.15;;;3.70;;
52248;SDS011;38541;48.130;8.378;2024-01-27T05:48:05;6.97;;;3.97;;
52248;SDS011;38541;48.130;8.378;2024-01-27T05:50:32;7.95;;;3.83;;
52248;SDS011;38541;48.130;8.378;2024-01-27T05:53:00;7.55;;;4.35;;
52248;SDS011;38541;48.130;8.378;2024-01-27T05:55:27;4.78;;;3.60;;
52248;SDS011;38541;48.130;8.378;2024-01-27T05:57:53;6.93;;;4.05;;
52248;SDS011;38541;48.130;8.378;2024-01-27T06:00:21;6.50;;;4.88;;
52248;SDS011;38541;48.130;8.378;2024-01-27T06:02:48;9.45;;;5.72;;
52248;SDS011;38541;48.130;8.378;2024-01-27T06:05:15;7.07;;;4.47;;
52248;SDS011;38541;48.130;8.378;2024-01-27T06:07:41;9.32;;;6.65;;
52248;SDS011;38541;48.130;8.378;2024-01-27T06:10:09;7.70;;;5.07;;
52248;SDS011;38541;48.130;8.378;2024-01-27T06:12:37;5.05;;;4.22;;
52248;SDS011;38541;48.130;8.378;2024-01-27T06:15:05;5.47;;;3.97;;
52248;SDS011;38541;48.130;8.378;2024-01-27T06:17:32;6.03;;;3.33;;
52248;SDS011;38541;48.130;8.378;2024-01-27T06:19:59;5.03;;;2.83;;
52248;SDS011;38541;48.130;8.378;2024-01-27T06:22:26;3.65;;;3.30;;
52248;SDS011;38541;48.130;8.378;2024-01-27T06:24:52;4.15;;;3.75;;
52248;SDS011;38541;48.130;8.378;2024-01-27T06:27:19;5.70;;;5.18;;
52248;SDS011;38541;48.130;8.378;2024-01-27T06:29:45;6.60;;;5.95;;
52248;SDS011;38541;48.130;8.378;2024-01-27T06:32:12;6.85;;;4.93;;
52248;SDS011;38541;48.130;8.378;2024-01-27T06:34:39;4.03;;;3.28;;
52248;SDS011;38541;48.130;8.378;2024-01-27T06:37:05;3.15;;;2.78;;
52248;SDS011;38541;48.130;8.378;2024-01-27T06:39:32;5.10;;;3.60;;
52248;SDS011;38541;48.130;8.378;2024-01-27T06:41:58;4.10;;;2.80;;
52248;SDS011;38541;48.130;8.378;2024-01-27T06:44:25;5.07;;;4.57;;
52248;SDS011;38541;48.130;8.378;2024-01-27T06:46:51;12.43;;;9.60;;
52248;SDS011;38541;48.130;8.378;2024-01-27T06:49:18;11.95;;;9.75;;
52248;SDS011;38541;48.130;8.378;2024-01-27T06:51:45;10.85;;;9.23;;
52248;SDS011;38541;48.130;8.378;2024-01-27T06:54:11;11.88;;;7.93;;
52248;SDS011;38541;48.130;8.378;2024-01-27T06:56:38;13.30;;;9.98;;
52248;SDS011;38541;48.130;8.378;2024-01-27T06:59:05;11.95;;;8.80;;
52248;SDS011;38541;48.130;8.378;2024-01-27T07:01:31;10.15;;;7.50;;
52248;SDS011;38541;48.130;8.378;2024-01-27T07:03:58;8.68;;;7.50;;
52248;SDS011;38541;48.130;8.378;2024-01-27T07:06:24;7.32;;;4.32;;
52248;SDS011;38541;48.130;8.378;2024-01-27T07:08:51;4.60;;;3.53;;
52248;SDS011;38541;48.130;8.378;2024-01-27T07:11:17;9.57;;;8.13;;
52248;SDS011;38541;48.130;8.378;2024-01-27T07:13:44;10.27;;;7.85;;
52248;SDS011;38541;48.130;8.378;2024-01-27T07:16:10;8.48;;;5.65;;
52248;SDS011;38541;48.130;8.378;2024-01-27T07:18:37;9.70;;;8.02;;
52248;SDS011;38541;48.130;8.378;2024-01-27T07:21:04;10.10;;;7.97;;
52248;SDS011;38541;48.130;8.378;2024-01-27T07:23:34;12.05;;;8.30;;
52248;SDS011;38541;48.130;8.378;2024-01-27T07:26:01;9.35;;;7.32;;
52248;SDS011;38541;48.130;8.378;2024-01-27T07:28:29;12.27;;;9.00;;
52248;SDS011;38541;48.130;8.378;2024-01-27T07:30:56;11.45;;;7.95;;
52248;SDS011;38541;48.130;8.378;2024-01-27T07:33:23;9.45;;;7.15;;
52248;SDS011;38541;48.130;8.378;2024-01-27T07:35:49;10.55;;;7.20;;
52248;SDS011;38541;48.130;8.378;2024-01-27T07:38:16;10.85;;;8.02;;
52248;SDS011;38541;48.130;8.378;2024-01-27T07:40:42;11.75;;;7.15;;
52248;SDS011;38541;48.130;8.378;2024-01-27T07:43:09;8.63;;;6.97;;
52248;SDS011;38541;48.130;8.378;2024-01-27T07:45:35;8.85;;;6.82;;
52248;SDS011;38541;48.130;8.378;2024-01-27T07:48:02;9.30;;;6.20;;
52248;SDS011;38541;48.130;8.378;2024-01-27T07:50:29;9.60;;;7.63;;
52248;SDS011;38541;48.130;8.378;2024-01-27T07:52:56;11.30;;;8.65;;
52248;SDS011;38541;48.130;8.378;2024-01-27T07:55:22;12.65;;;8.65;;
52248;SDS011;38541;48.130;8.378;2024-01-27T07:57:49;10.82;;;8.43;;
52248;SDS011;38541;48.130;8.378;2024-01-27T08:00:15;10.55;;;7.15;;
52248;SDS011;38541;48.130;8.378;2024-01-27T08:02:43;8.50;;;7.53;;
52248;SDS011;38541;48.130;8.378;2024-01-27T08:05:09;11.23;;;6.82;;
52248;SDS011;38541;48.130;8.378;2024-01-27T08:07:36;8.88;;;6.20;;
52248;SDS011;38541;48.130;8.378;2024-01-27T08:10:02;9.73;;;6.05;;
52248;SDS011;38541;48.130;8.378;2024-01-27T08:12:30;6.63;;;5.28;;
52248;SDS011;38541;48.130;8.378;2024-01-27T08:14:57;6.15;;;5.25;;
52248;SDS011;38541;48.130;8.378;2024-01-27T08:17:24;8.65;;;5.72;;
52248;SDS011;38541;48.130;8.378;2024-01-27T08:19:51;6.38;;;4.30;;
52248;SDS011;38541;48.130;8.378;2024-01-27T08:22:17;6.13;;;5.05;;
52248;SDS011;38541;48.130;8.378;2024-01-27T08:24:44;13.35;;;9.15;;
52248;SDS011;38541;48.130;8.378;2024-01-27T08:27:11;12.60;;;10.10;;
52248;SDS011;38541;48.130;8.378;2024-01-27T08:29:37;9.10;;;6.28;;
52248;SDS011;38541;48.130;8.378;2024-01-27T08:32:04;5.85;;;5.15;;
52248;SDS011;38541;48.130;8.378;2024-01-27T08:34:31;7.13;;;5.22;;
52248;SDS011;38541;48.130;8.378;2024-01-27T08:36:59;5.97;;;4.60;;
52248;SDS011;38541;48.130;8.378;2024-01-27T08:39:27;6.35;;;4.63;;
52248;SDS011;38541;48.130;8.378;2024-01-27T08:41:54;6.82;;;4.07;;
52248;SDS011;38541;48.130;8.378;2024-01-27T08:44:20;10.85;;;5.45;;
52248;SDS011;38541;48.130;8.378;2024-01-27T08:46:47;12.07;;;6.63;;
52248;SDS011;38541;48.130;8.378;2024-01-27T08:49:14;9.38;;;5.80;;
52248;SDS011;38541;48.130;8.378;2024-01-27T08:51:40;10.20;;;5.93;;
52248;SDS011;38541;48.130;8.378;2024-01-27T08:54:07;7.20;;;5.78;;
52248;SDS011;38541;48.130;8.378;2024-01-27T08:56:33;6.93;;;5.00;;
52248;SDS011;38541;48.130;8.378;2024-01-27T08:59:00;6.45;;;4.40;;
52248;SDS011;38541;48.130;8.378;2024-01-27T09:01:26;5.38;;;4.82;;
52248;SDS011;38541;48.130;8.378;2024-01-27T09:03:53;6.10;;;4.45;;
52248;SDS011;38541;48.130;8.378;2024-01-27T09:06:20;7.78;;;6.00;;
52248;SDS011;38541;48.130;8.378;2024-01-27T09:08:46;9.43;;;6.80;;
52248;SDS011;38541;48.130;8.378;2024-01-27T09:11:13;9.80;;;6.03;;
52248;SDS011;38541;48.130;8.378;2024-01-27T09:13:40;11.90;;;7.70;;
52248;SDS011;38541;48.130;8.378;2024-01-27T09:16:06;9.20;;;6.75;;
52248;SDS011;38541;48.130;8.378;2024-01-27T09:18:33;8.88;;;6.35;;
52248;SDS011;38541;48.130;8.378;2024-01-27T09:21:00;9.65;;;6.20;;
52248;SDS011;38541;48.130;8.378;2024-01-27T09:23:27;8.02;;;5.30;;
52248;SDS011;38541;48.130;8.378;2024-01-27T09:25:54;5.60;;;4.95;;
52248;SDS011;38541;48.130;8.378;2024-01-27T09:28:20;8.70;;;6.07;;
52248;SDS011;38541;48.130;8.378;2024-01-27T09:30:47;8.80;;;6.53;;
52248;SDS011;38541;48.130;8.378;2024-01-27T09:33:13;11.40;;;6.55;;
52248;SDS011;38541;48.130;8.378;2024-01-27T09:35:40;8.82;;;6.35;;
52248;SDS011;38541;48.130;8.378;2024-01-27T09:38:07;8.45;;;6.20;;
52248;SDS011;38541;48.130;8.378;2024-01-27T09:40:35;9.68;;;5.88;;
52248;SDS011;38541;48.130;8.378;2024-01-27T09:43:02;7.93;;;5.60;;
52248;SDS011;38541;48.130;8.378;2024-01-27T09:45:29;6.35;;;4.85;;
52248;SDS011;38541;48.130;8.378;2024-01-27T09:47:56;7.10;;;5.05;;
52248;SDS011;38541;48.130;8.378;2024-01-27T09:50:24;6.57;;;5.93;;
52248;SDS011;38541;48.130;8.378;2024-01-27T09:52:51;5.85;;;4.63;;
52248;SDS011;38541;48.130;8.378;2024-01-27T09:55:18;7.55;;;5.07;;
52248;SDS011;38541;48.130;8.378;2024-01-27T09:57:44;5.93;;;5.30;;
52248;SDS011;38541;48.130;8.378;2024-01-27T10:00:12;5.95;;;4.50;;
52248;SDS011;38541;48.130;8.378;2024-01-27T10:02:39;5.45;;;4.65;;
52248;SDS011;38541;48.130;8.378;2024-01-27T10:05:09;8.23;;;4.75;;
52248;SDS011;38541;48.130;8.378;2024-01-27T10:07:35;5.65;;;4.35;;
52248;SDS011;38541;48.130;8.378;2024-01-27T10:10:02;6.13;;;3.97;;
52248;SDS011;38541;48.130;8.378;2024-01-27T10:12:29;4.97;;;4.35;;
52248;SDS011;38541;48.130;8.378;2024-01-27T10:14:57;3.78;;;3.28;;
52248;SDS011;38541;48.130;8.378;2024-01-27T10:17:24;3.17;;;2.80;;
52248;SDS011;38541;48.130;8.378;2024-01-27T10:19:59;4.53;;;2.88;;
52248;SDS011;38541;48.130;8.378;2024-01-27T10:22:27;3.78;;;2.38;;
52248;SDS011;38541;48.130;8.378;2024-01-27T10:24:54;3.22;;;2.22;;
52248;SDS011;38541;48.130;8.378;2024-01-27T10:27:22;3.72;;;2.30;;
52248;SDS011;38541;48.130;8.378;2024-01-27T10:29:52;2.13;;;1.55;;
52248;SDS011;38541;48.130;8.378;2024-01-27T10:32:21;1.98;;;1.60;;
52248;SDS011;38541;48.130;8.378;2024-01-27T10:35:04;4.65;;;1.55;;
52248;SDS011;38541;48.130;8.378;2024-01-27T10:37:31;2.42;;;1.80;;
52248;SDS011;38541;48.130;8.378;2024-01-27T10:40:01;4.25;;;2.28;;
52248;SDS011;38541;48.130;8.378;2024-01-27T10:42:29;1.40;;;1.40;;
52248;SDS011;38541;48.130;8.378;2024-01-27T10:44:59;2.15;;;1.52;;
52248;SDS011;38541;48.130;8.378;2024-01-27T10:47:29;3.03;;;1.50;;
52248;SDS011;38541;48.130;8.378;2024-01-27T10:49:57;2.35;;;1.40;;
52248;SDS011;38541;48.130;8.378;2024-01-27T10:52:29;1.80;;;1.35;;
52248;SDS011;38541;48.130;8.378;2024-01-27T10:55:01;2.03;;;1.52;;
52248;SDS011;38541;48.130;8.378;2024-01-27T10:57:30;2.10;;;1.45;;
52248;SDS011;38541;48.130;8.378;2024-01-27T10:59:57;2.95;;;1.92;;
52248;SDS011;38541;48.130;8.378;2024-01-27T11:02:24;2.35;;;1.83;;
52248;SDS011;38541;48.130;8.378;2024-01-27T11:04:51;4.65;;;1.77;;
52248;SDS011;38541;48.130;8.378;2024-01-27T11:07:21;1.77;;;1.67;;
52248;SDS011;38541;48.130;8.378;2024-01-27T11:09:50;2.08;;;1.48;;
52248;SDS011;38541;48.130;8.378;2024-01-27T11:12:18;1.77;;;1.60;;
52248;SDS011;38541;48.130;8.378;2024-01-27T11:14:47;3.22;;;1.80;;
52248;SDS011;38541;48.130;8.378;2024-01-27T11:17:15;1.90;;;1.60;;
52248;SDS011;38541;48.130;8.378;2024-01-27T11:19:42;1.67;;;1.42;;
52248;SDS011;38541;48.130;8.378;2024-01-27T11:22:24;1.98;;;1.77;;
52248;SDS011;38541;48.130;8.378;2024-01-27T11:25:37;2.10;;;1.50;;
52248;SDS011;38541;48.130;8.378;2024-01-27T11:27:40;1.88;;;1.50;;
52248;SDS011;38541;48.130;8.378;2024-01-27T11:30:23;2.47;;;1.70;;
52248;SDS011;38541;48.130;8.378;2024-01-27T11:33:03;3.03;;;1.35;;
52248;SDS011;38541;48.130;8.378;2024-01-27T11:35:31;1.58;;;1.48;;
52248;SDS011;38541;48.130;8.378;2024-01-27T11:37:58;1.98;;;1.38;;
52248;SDS011;38541;48.130;8.378;2024-01-27T11:40:24;1.30;;;1.20;;
52248;SDS011;38541;48.130;8.378;2024-01-27T11:42:54;1.73;;;1.63;;
52248;SDS011;38541;48.130;8.378;2024-01-27T11:45:22;1.67;;;1.25;;
52248;SDS011;38541;48.130;8.378;2024-01-27T11:47:49;3.17;;;1.50;;
52248;SDS011;38541;48.130;8.378;2024-01-27T11:50:19;2.83;;;1.30;;
52248;SDS011;38541;48.130;8.378;2024-01-27T11:52:46;1.90;;;1.38;;
52248;SDS011;38541;48.130;8.378;2024-01-27T11:55:13;2.47;;;1.55;;
52248;SDS011;38541;48.130;8.378;2024-01-27T11:57:41;2.15;;;1.35;;
52248;SDS011;38541;48.130;8.378;2024-01-27T12:00:08;3.42;;;1.30;;
52248;SDS011;38541;48.130;8.378;2024-01-27T12:02:38;2.28;;;1.27;;
52248;SDS011;38541;48.130;8.378;2024-01-27T12:05:05;1.17;;;1.10;;
52248;SDS011;38541;48.130;8.378;2024-01-27T12:07:32;1.45;;;1.35;;
52248;SDS011;38541;48.130;8.378;2024-01-27T12:09:59;1.50;;;1.35;;
52248;SDS011;38541;48.130;8.378;2024-01-27T12:12:26;2.47;;;1.55;;
52248;SDS011;38541;48.130;8.378;2024-01-27T12:14:52;1.52;;;1.42;;
52248;SDS011;38541;48.130;8.378;2024-01-27T12:17:19;2.33;;;1.65;;
52248;SDS011;38541;48.130;8.378;2024-01-27T12:19:47;1.00;;;0.95;;
52248;SDS011;38541;48.130;8.378;2024-01-27T12:22:24;2.08;;;1.10;;
52248;SDS011;38541;48.130;8.378;2024-01-27T12:24:54;1.65;;;0.98;;
52248;SDS011;38541;48.130;8.378;2024-01-27T12:27:22;1.85;;;1.30;;
52248;SDS011;38541;48.130;8.378;2024-01-27T12:29:49;2.35;;;1.40;;
52248;SDS011;38541;48.130;8.378;2024-01-27T12:32:17;1.38;;;1.27;;
52248;SDS011;38541;48.130;8.378;2024-01-27T12:34:44;1.15;;;1.05;;
52248;SDS011;38541;48.130;8.378;2024-01-27T12:37:16;1.92;;;1.17;;
52248;SDS011;38541;48.130;8.378;2024-01-27T12:39:43;1.67;;;1.30;;
52248;SDS011;38541;48.130;8.378;2024-01-27T12:42:11;2.20;;;1.60;;
52248;SDS011;38541;48.130;8.378;2024-01-27T12:44:37;1.65;;;1.40;;
52248;SDS011;38541;48.130;8.378;2024-01-27T12:47:05;1.33;;;1.23;;
52248;SDS011;38541;48.130;8.378;2024-01-27T12:49:32;1.50;;;1.40;;
52248;SDS011;38541;48.130;8.378;2024-01-27T12:51:59;2.78;;;1.23;;
52248;SDS011;38541;48.130;8.378;2024-01-27T12:54:25;1.55;;;1.23;;
52248;SDS011;38541;48.130;8.378;2024-01-27T12:56:52;3.22;;;1.40;;
52248;SDS011;38541;48.130;8.378;2024-01-27T12:59:20;1.40;;;1.30;;
52248;SDS011;38541;48.130;8.378;2024-01-27T13:01:47;1.80;;;1.00;;
52248;SDS011;38541;48.130;8.378;2024-01-27T13:04:13;3.33;;;1.88;;
52248;SDS011;38541;48.130;8.378;2024-01-27T13:06:40;1.50;;;1.10;;
52248;SDS011;38541;48.130;8.378;2024-01-27T13:09:08;1.73;;;1.13;;
52248;SDS011;38541;48.130;8.378;2024-01-27T13:11:38;1.10;;;1.00;;
52248;SDS011;38541;48.130;8.378;2024-01-27T13:14:04;1.58;;;1.48;;
52248;SDS011;38541;48.130;8.378;2024-01-27T13:16:31;3.90;;;1.33;;
52248;SDS011;38541;48.130;8.378;2024-01-27T13:18:58;1.75;;;1.25;;
52248;SDS011;38541;48.130;8.378;2024-01-27T13:21:25;0.98;;;0.98;;
52248;SDS011;38541;48.130;8.378;2024-01-27T13:23:51;0.85;;;0.80;;
52248;SDS011;38541;48.130;8.378;2024-01-27T13:26:19;1.25;;;1.15;;
52248;SDS011;38541;48.130;8.378;2024-01-27T13:28:46;1.30;;;1.20;;
52248;SDS011;38541;48.130;8.378;2024-01-27T13:31:15;2.33;;;1.17;;
52248;SDS011;38541;48.130;8.378;2024-01-27T13:33:42;1.15;;;1.08;;
52248;SDS011;38541;48.130;8.378;2024-01-27T13:36:09;2.33;;;1.10;;
52248;SDS011;38541;48.130;8.378;2024-01-27T13:38:36;1.15;;;0.90;;
52248;SDS011;38541;48.130;8.378;2024-01-27T13:41:02;1.30;;;0.93;;
52248;SDS011;38541;48.130;8.378;2024-01-27T13:43:29;0.82;;;0.82;;
52248;SDS011;38541;48.130;8.378;2024-01-27T13:45:55;1.17;;;1.08;;
52248;SDS011;38541;48.130;8.378;2024-01-27T13:48:22;1.25;;;1.13;;
52248;SDS011;38541;48.130;8.378;2024-01-27T13:50:49;1.63;;;1.00;;
52248;SDS011;38541;48.130;8.378;2024-01-27T13:53:15;1.50;;;1.30;;
52248;SDS011;38541;48.130;8.378;2024-01-27T13:55:42;1.40;;;1.30;;
52248;SDS011;38541;48.130;8.378;2024-01-27T13:58:10;1.35;;;1.00;;
52248;SDS011;38541;48.130;8.378;2024-01-27T14:00:37;1.40;;;1.05;;
52248;SDS011;38541;48.130;8.378;2024-01-27T14:03:03;4.53;;;1.88;;
52248;SDS011;38541;48.130;8.378;2024-01-27T14:05:30;1.27;;;1.15;;
52248;SDS011;38541;48.130;8.378;2024-01-27T14:07:56;1.50;;;1.40;;
52248;SDS011;38541;48.130;8.378;2024-01-27T14:10:24;4.13;;;1.45;;
52248;SDS011;38541;48.130;8.378;2024-01-27T14:12:51;1.40;;;1.08;;
52248;SDS011;38541;48.130;8.378;2024-01-27T14:15:18;1.17;;;1.05;;
52248;SDS011;38541;48.130;8.378;2024-01-27T14:17:44;2.33;;;1.30;;
52248;SDS011;38541;48.130;8.378;2024-01-27T14:20:11;3.53;;;1.40;;
52248;SDS011;38541;48.130;8.378;2024-01-27T14:22:38;1.85;;;1.35;;
52248;SDS011;38541;48.130;8.378;2024-01-27T14:25:05;1.52;;;1.23;;
52248;SDS011;38541;48.130;8.378;2024-01-27T14:27:34;2.53;;;1.58;;
52248;SDS011;38541;48.130;8.378;2024-01-27T14:30:01;1.30;;;1.17;;
52248;SDS011;38541;48.130;8.378;2024-01-27T14:32:28;2.17;;;1.67;;
52248;SDS011;38541;48.130;8.378;2024-01-27T14:34:55;1.35;;;1.25;;
52248;SDS011;38541;48.130;8.378;2024-01-27T14:37:21;3.00;;;1.70;;
52248;SDS011;38541;48.130;8.378;2024-01-27T14:39:48;1.70;;;1.60;;
52248;SDS011;38541;48.130;8.378;2024-01-27T14:42:15;2.25;;;1.80;;
52248;SDS011;38541;48.130;8.378;2024-01-27T14:44:43;2.20;;;2.00;;